Hill AFB, Utah
Current Conditions -  °F | °C
As of 8:58 AM on Saturday 25 Oct 2014 (Local Time) from KHIF Reporting Station
Clear Clear  
Wind Chill: 57°   Ceiling: Unl
Heat Index: 57°   Visibility: 10mi
Dew Point: 29°   Wind: 8mph
Humidity: 34%   Direction: 150°SSE
Pressure: 30.1"   Gusts: NA
Location:  41.11°N, 112°W
Report Text: KHIF 251458Z AUTO 15007KT 10SM CLR 14/M02 A3010 RMK AO2 SLP153 T01391018 50003
Loading
Personal Weather Stations






























Interactive Weather Map
Tropical Storm Tracking
New forecast layout! Learn more

10-Day Weather Forecast

Advertisements
Track Severe Weather on mobile